Walnut Creek, CA (94598)

7:18 PM PDT on October 22, 2014 (GMT -0700)
Walnut Creek - North | Change Station
CLOSE
Current Station
Personal Weather Station
Location: Walnut Creek, CA
Elevation: 104 ft
Nearby Weather Stations

Elev 104 ft 37.93 °N, 122.05 °W | Updated 3 minutes ago

Clear
Clear
67.5 °F
Feels Like 67.5 °F
N
1.6
Wind Variable Wind from SW
Gusts 1.6 mph

Today
High -- | Low -- °F
--% Chance of Precip.
Yesterday
High -- | Low -- °F
Precip. -- in
7:23 AM 6:20 PM
Waning Crescent, 1% visible
Pressure 29.97 in
Visibility 10.0 miles
Clouds Clear
Dew Point 55 °F
Humidity 64%
Rainfall 0.00 in
Snow Depth Not available.
UV 0 out of 12
Pollen 2.40 out of 12
Ozone Good
PM2.5 Good
Flu Activity Sporadic
METAR KCCR 230153Z 28005KT 10SM CLR 21/12 A3001 RMK AO2 SLP148 T02060117

More Conditions Fewer Conditions

Pressure 29.97 in
Visibility 10.0 miles
Clouds Clear
Dew Point 55 °F
Humidity 64%
Rainfall 0.00 in
Snow Depth Not available.
UV 0 out of 12
Pollen 2.40 out of 12
Ozone Good
PM2.5 Good
Flu Activity Sporadic
METAR KCCR 230153Z 28005KT 10SM CLR 21/12 A3001 RMK AO2 SLP148 T02060117

More Conditions Fewer Conditions

10-Day Weather Forecast

Almanac

Astronomy

Oct. 22, 2014 Rise Set
Actual Time 7:23 AM PDT 6:20 PM PDT
Civil Twilight 6:56 AM PDT 6:47 PM PDT
Nautical Twilight 6:26 AM PDT 7:18 PM PDT
Astronomical Twilight 5:55 AM PDT 7:48 PM PDT
Moon 6:11 AM PDT (10/22) 5:49 PM PDT (10/22)
Length of Visible Light 11h 50m
Length of Day
10h 57m
Tomorrow will be 2m 17s shorter.
Waning Crescent, 1% of the Moon is Illuminated
Today
Waning Crescent
Oct 23
New
Oct 30
First Quarter
Nov 6
Full
Nov 14
Last Quarter

Today's Extremes

State Highs State Lows

Community

WunderPhotos

Upload Photos

1,764,109 photos uploaded!

Nearby

Air Quality

  Air Quality AQ Index Pollutant
Yesterday Good
OZONE
Yesterday Good
PM2.5
Current Good
OZONE
Current Good
PM2.5
Wednesday Good
OZONE
Thursday Good
OZONE
Friday Good
OZONE
Saturday Good
PM2.5
Sunday Good
PM2.5
Monday Good
PM2.5

Snow Depth

Station Depth Elevation
Ward Creek #3 0 in 6750 ft
Leavitt Lake 0 in 9400 ft
Tahoe City Cross 0 in 6750 ft
Leavitt Meadows 0 in 7200 ft
Summit Meadow 0 in 9122 ft

Earthquake Activity

City Distance Mag. Time & Date
No recent earthquake activity has been reported nearby.
Minimum magnitude displayed is 2.5.

Coastal Water Temperatures

Place Temperature
San Francisco, CA 63.0 °F
Richmond, CA 64.0 °F
Port Chicago, CA 66.9 °F

Nearby Weather Stations